Time;durP1;ratioP1;P1;durP2;ratioP2;P2;SDS_P1;SDS_P2;PMS_P1;PMS_P2;Temp;Humidity;BMP_temperature;BMP_pressure;BME280_temperature;BME280_humidity;BME280_pressure;Samples;Min_cycle;Max_cycle;Signal;HPM_P1;HPM_P2
2024/02/24 00:00:22;;;;;;;;;9.50;7.75;;;;;13.91;52.02;101231.94;146626;615;46020;-75
2024/02/24 00:03:25;;;;;;;;;8.25;8.25;;;;;13.85;52.48;101222.09;146625;584;46014;-74
2024/02/24 00:06:52;;;;;;;;;7.25;7.00;;;;;13.72;52.39;101201.53;146627;614;45020;-73
2024/02/24 00:09:47;;;;;;;;;7.50;7.50;;;;;13.71;52.97;101218.00;146624;605;46915;-72
2024/02/24 00:12:49;;;;;;;;;8.25;6.25;;;;;13.59;53.22;101211.38;146624;644;45020;-72
2024/02/24 00:15:53;;;;;;;;;9.00;6.75;;;;;13.55;53.42;101213.75;146595;589;47016;-74
2024/02/24 00:18:56;;;;;;;;;13.00;11.75;;;;;13.53;53.42;101211.09;146599;631;46010;-73
2024/02/24 00:21:51;;;;;;;;;13.00;11.75;;;;;13.54;53.22;101214.59;146594;603;46016;-73
2024/02/24 00:24:46;;;;;;;;;9.00;8.50;;;;;13.55;52.86;101196.44;146600;662;46021;-74
2024/02/24 00:27:45;;;;;;;;;6.50;6.25;;;;;13.61;53.12;101206.22;146597;585;46028;-73
2024/02/24 00:30:38;;;;;;;;;8.50;7.00;;;;;13.63;53.12;101191.56;146601;579;46010;-75
2024/02/24 00:33:39;;;;;;;;;6.00;5.00;;;;;13.65;52.90;101199.47;146598;631;46016;-74
2024/02/24 00:36:33;;;;;;;;;8.75;8.75;;;;;13.66;53.14;101202.13;146604;564;46020;-75
2024/02/24 00:39:29;;;;;;;;;21.50;20.75;;;;;13.72;52.91;101193.72;146597;582;46016;-75
2024/02/24 00:42:23;;;;;;;;;10.00;7.25;;;;;13.80;52.54;101192.31;146602;572;46010;-72
2024/02/24 00:45:24;;;;;;;;;6.25;5.25;;;;;13.85;52.06;101189.09;146597;617;47012;-77
2024/02/24 00:48:21;;;;;;;;;9.75;8.00;;;;;13.94;51.59;101183.44;146600;652;47024;-72
2024/02/24 00:51:26;;;;;;;;;7.50;7.00;;;;;14.07;50.87;101182.25;146597;653;48012;-71
2024/02/24 00:54:20;;;;;;;;;4.75;4.75;;;;;14.21;50.30;101181.16;146603;594;46010;-70
2024/02/24 00:57:19;;;;;;;;;8.00;7.00;;;;;14.37;50.16;101187.94;146598;576;46033;-71
2024/02/24 01:00:20;;;;;;;;;3.00;3.00;;;;;14.33;50.38;101157.31;146602;692;46021;-72
2024/02/24 01:03:19;;;;;;;;;3.50;3.50;;;;;14.39;49.79;101152.37;146597;589;46016;-71
2024/02/24 01:06:13;;;;;;;;;6.25;6.00;;;;;14.60;49.80;101175.87;146600;619;46020;-71
2024/02/24 01:09:16;;;;;;;;;12.00;10.00;;;;;14.65;50.18;101169.16;146596;570;48016;-74
2024/02/24 01:12:16;;;;;;;;;11.75;10.00;;;;;14.65;50.30;101163.94;146601;742;46010;-76
2024/02/24 01:15:21;;;;;;;;;14.75;13.00;;;;;14.62;50.37;101171.63;146595;585;46016;-76
2024/02/24 01:18:24;;;;;;;;;59.25;45.25;;;;;14.59;50.84;101166.28;146602;589;46020;-77
2024/02/24 01:21:28;;;;;;;;;28.00;23.25;;;;;14.53;51.44;101168.63;146599;598;46017;-77
2024/02/24 01:24:30;;;;;;;;;24.75;20.75;;;;;14.46;51.66;101162.22;146597;602;46012;-76
2024/02/24 01:27:28;;;;;;;;;21.25;19.25;;;;;14.37;51.66;101150.53;146598;648;46016;-76
2024/02/24 01:30:26;;;;;;;;;17.50;15.25;;;;;14.19;51.84;101148.00;146603;573;45021;-76
2024/02/24 01:33:27;;;;;;;;;15.25;13.50;;;;;14.04;52.39;101149.09;146598;566;46016;-76
2024/02/24 01:36:20;;;;;;;;;16.25;13.00;;;;;14.00;52.61;101152.41;146600;564;46020;-76
2024/02/24 01:39:24;;;;;;;;;12.00;10.75;;;;;13.98;51.98;101141.00;146595;590;47012;-74
2024/02/24 01:42:20;;;;;;;;;16.00;13.00;;;;;13.96;52.89;101149.63;146596;628;47020;-77
2024/02/24 01:45:35;;;;;;;;;19.75;17.50;;;;;13.93;52.78;101131.22;146595;591;47013;-78
2024/02/24 01:48:32;;;;;;;;;20.50;17.00;;;;;13.89;53.00;101124.06;146598;605;46020;-79
2024/02/24 01:51:40;;;;;;;;;16.25;14.75;;;;;13.85;52.85;101126.53;146594;603;47017;-78
2024/02/24 01:54:46;;;;;;;;;26.50;17.50;;;;;13.84;52.87;101140.41;146596;632;46020;-72
2024/02/24 01:57:49;;;;;;;;;17.75;17.00;;;;;13.78;52.92;101127.09;146597;585;46012;-74
2024/02/24 02:00:46;;;;;;;;;15.75;13.75;;;;;13.86;53.00;101138.78;146600;689;46021;-74
2024/02/24 02:04:04;;;;;;;;;20.75;17.25;;;;;13.83;53.15;101143.84;146596;619;47014;-76
2024/02/24 02:07:04;;;;;;;;;8.25;7.50;;;;;13.81;52.86;101127.25;146603;581;46020;-75
2024/02/24 02:10:17;;;;;;;;;10.50;9.00;;;;;13.79;52.65;101134.09;146599;592;46016;-73
2024/02/24 02:13:27;;;;;;;;;13.50;11.00;;;;;13.76;53.29;101141.78;146602;601;46010;-72
2024/02/24 02:16:30;;;;;;;;;39.00;31.00;;;;;13.70;53.67;101136.28;146596;721;46017;-70
2024/02/24 02:19:29;;;;;;;;;13.25;10.25;;;;;13.53;53.65;101127.72;146602;584;46020;-71
2024/02/24 02:22:26;;;;;;;;;11.25;9.00;;;;;13.44;55.39;101123.81;146600;619;46017;-71
2024/02/24 02:25:31;;;;;;;;;8.75;6.75;;;;;13.41;55.64;101124.56;146602;684;46020;-74
2024/02/24 02:28:32;;;;;;;;;13.00;11.00;;;;;13.40;55.72;101123.66;146598;591;46015;-75
2024/02/24 02:31:31;;;;;;;;;13.75;12.00;;;;;13.45;55.47;101131.69;146603;583;46020;-74
2024/02/24 02:34:39;;;;;;;;;12.00;10.50;;;;;13.56;55.45;101140.00;146596;594;47012;-77
2024/02/24 02:37:43;;;;;;;;;8.75;7.75;;;;;13.65;55.38;101121.28;146601;588;47021;-69
2024/02/24 02:40:45;;;;;;;;;10.00;7.50;;;;;13.69;54.69;101121.47;146599;586;46016;-71
2024/02/24 02:43:37;;;;;;;;;5.50;5.50;;;;;13.73;54.61;101125.13;146603;586;46021;-83
2024/02/24 02:46:29;;;;;;;;;10.50;7.75;;;;;13.80;54.49;101134.97;146598;600;46915;-79
2024/02/24 02:49:29;;;;;;;;;7.00;7.00;;;;;13.84;54.59;101135.19;146604;574;46020;-79
2024/02/24 02:52:27;;;;;;;;;7.50;5.50;;;;;13.83;54.54;101125.63;146599;603;46017;-75
2024/02/24 02:55:36;;;;;;;;;8.50;6.75;;;;;13.77;55.01;101130.56;146599;596;46020;-74
2024/02/24 02:58:38;;;;;;;;;7.00;6.00;;;;;13.67;55.11;101138.75;146597;608;47017;-74
2024/02/24 03:01:32;;;;;;;;;9.00;8.25;;;;;13.64;55.42;101143.81;146602;650;46010;-74
2024/02/24 03:04:37;;;;;;;;;40.00;33.75;;;;;13.65;55.56;101144.75;146598;680;46016;-73
2024/02/24 03:07:42;;;;;;;;;26.25;24.75;;;;;13.59;55.99;101141.03;146600;590;46021;-74
2024/02/24 03:10:39;;;;;;;;;20.50;19.00;;;;;13.54;55.68;101139.03;146597;574;47012;-73
2024/02/24 03:13:51;;;;;;;;;16.50;13.25;;;;;10.32;55.64;100583.09;146600;684;47021;-72
2024/02/24 03:16:52;;;;;;;;;10.00;8.25;;;;;13.56;56.41;101148.69;146597;644;47012;-71
2024/02/24 03:19:45;;;;;;;;;10.50;10.00;;;;;13.60;56.57;101144.53;146604;665;46020;-71
2024/02/24 03:22:50;;;;;;;;;20.50;17.00;;;;;13.61;56.37;101144.59;146595;606;46017;-71
2024/02/24 03:25:43;;;;;;;;;50.50;40.75;;;;;13.59;56.88;101140.12;146598;606;46010;-70
2024/02/24 03:28:44;;;;;;;;;21.50;21.00;;;;;13.58;56.51;101153.97;146595;570;46013;-71
2024/02/24 03:31:41;;;;;;;;;6.50;6.50;;;;;13.57;56.57;101155.69;146603;569;46020;-71
2024/02/24 03:34:37;;;;;;;;;7.25;6.75;;;;;13.62;56.36;101142.88;146598;611;46012;-70
2024/02/24 03:37:35;;;;;;;;;21.00;20.00;;;;;13.62;55.97;101146.38;146602;573;46010;-70
2024/02/24 03:40:30;;;;;;;;;25.00;21.25;;;;;13.65;56.42;101152.56;146597;564;46012;-71
2024/02/24 03:43:38;;;;;;;;;15.25;12.75;;;;;13.67;56.27;101151.78;146601;572;46021;-70
2024/02/24 03:46:48;;;;;;;;;13.25;11.50;;;;;13.63;56.01;101150.75;146595;617;47035;-71
2024/02/24 03:49:44;;;;;;;;;13.00;10.75;;;;;13.61;56.06;101149.81;146600;620;46010;-69
2024/02/24 03:52:43;;;;;;;;;12.75;10.50;;;;;13.57;56.37;101144.38;146596;582;47012;-73
2024/02/24 03:55:40;;;;;;;;;11.25;9.25;;;;;13.52;56.18;101159.81;146602;618;46020;-77
2024/02/24 03:58:46;;;;;;;;;8.00;8.00;;;;;9.37;56.10;100462.56;146597;577;46016;-76
2024/02/24 04:02:03;;;;;;;;;8.25;6.25;;;;;13.51;56.22;101168.44;146604;669;45020;-77
2024/02/24 04:05:14;;;;;;;;;;;;;;;;;;;;;
2024/02/24 04:08:23;;;;;;;;;4.25;4.25;;;;;13.66;55.59;101157.81;146605;569;45021;-73
2024/02/24 04:11:28;;;;;;;;;10.25;7.75;;;;;13.72;55.54;101168.53;146599;609;46016;-79
2024/02/24 04:14:24;;;;;;;;;5.00;5.00;;;;;13.74;55.54;101171.22;146601;639;47011;-79
2024/02/24 04:17:41;;;;;;;;;;;;;;;;;;;;;
2024/02/24 04:20:38;;;;;;;;;8.50;6.00;;;;;13.67;56.92;101182.16;146602;572;46020;-78
2024/02/24 04:23:56;;;;;;;;;7.00;6.00;;;;;11.48;55.81;100804.13;146596;632;47012;-78
2024/02/24 04:26:57;;;;;;;;;14.00;13.75;;;;;13.49;56.93;101169.19;146600;575;47010;-79
2024/02/24 04:29:59;;;;;;;;;12.25;12.00;;;;;13.36;57.47;101178.12;146597;569;46913;-77
2024/02/24 04:32:56;;;;;;;;;9.50;8.00;;;;;13.30;57.43;101183.97;146600;595;46010;-76
2024/02/24 04:35:52;;;;;;;;;16.75;15.75;;;;;13.22;57.35;101169.66;146597;616;46013;-78
2024/02/24 04:38:54;;;;;;;;;10.00;10.00;;;;;13.22;57.59;101190.47;146605;597;46020;-78
2024/02/24 04:41:56;;;;;;;;;9.25;8.25;;;;;13.17;57.52;101189.34;146597;623;46016;-76
2024/02/24 04:44:54;;;;;;;;;11.00;8.00;;;;;13.13;57.86;101183.13;146604;692;47038;-82
2024/02/24 04:47:54;;;;;;;;;20.00;15.75;;;;;13.09;58.63;101177.69;146592;613;47913;-80
2024/02/24 04:50:52;;;;;;;;;35.50;28.50;;;;;13.02;59.64;101178.19;146598;611;46020;-80
2024/02/24 04:54:20;;;;;;;;;16.75;13.50;;;;;12.91;60.04;101189.00;146595;601;46016;-80
2024/02/24 04:57:24;;;;;;;;;11.00;8.00;;;;;12.85;61.43;101183.47;146600;566;46020;-81
2024/02/24 05:00:25;;;;;;;;;19.75;16.00;;;;;12.83;61.87;101185.09;146596;580;47014;-80
2024/02/24 05:03:38;;;;;;;;;16.50;13.50;;;;;12.81;62.45;101191.97;146601;579;46020;-79
2024/02/24 05:06:47;;;;;;;;;18.75;15.00;;;;;12.74;63.35;101183.75;146597;613;46016;-79
2024/02/24 05:09:39;;;;;;;;;15.00;14.25;;;;;12.62;63.62;101189.28;146601;584;46010;-74
2024/02/24 05:12:52;;;;;;;;;13.25;11.50;;;;;12.58;63.62;101203.81;146598;586;46015;-74
2024/02/24 05:15:44;;;;;;;;;18.75;16.75;;;;;12.51;63.62;101182.63;146600;574;46010;-74
2024/02/24 05:18:44;;;;;;;;;17.00;15.25;;;;;12.56;63.99;101196.75;146596;572;46016;-74
2024/02/24 05:21:51;;;;;;;;;17.00;11.75;;;;;12.47;63.07;101203.28;146599;593;46021;-74
2024/02/24 05:24:51;;;;;;;;;13.25;10.75;;;;;12.42;63.21;101190.84;146598;596;46016;-73
2024/02/24 05:27:45;;;;;;;;;13.00;11.00;;;;;12.41;63.24;101208.16;146601;590;47021;-73
2024/02/24 05:30:43;;;;;;;;;13.50;12.75;;;;;12.41;62.96;101215.97;146596;579;46016;-73
2024/02/24 05:33:47;;;;;;;;;17.25;16.25;;;;;12.43;62.71;101216.06;146601;588;46010;-73
2024/02/24 05:37:03;;;;;;;;;22.75;18.00;;;;;9.99;61.84;100797.25;146596;608;47012;-70
2024/02/24 05:40:01;;;;;;;;;21.25;16.75;;;;;12.35;62.43;101226.03;146601;673;46020;-74
2024/02/24 05:42:56;;;;;;;;;18.25;14.75;;;;;12.37;62.43;101220.94;146595;644;46025;-74
2024/02/24 05:45:51;;;;;;;;;24.50;24.00;;;;;12.65;64.88;101218.94;146599;576;46020;-74
2024/02/24 05:48:58;;;;;;;;;14.75;14.00;;;;;13.52;62.51;101224.03;146599;572;46016;-73
2024/02/24 05:52:02;;;;;;;;;14.00;13.00;;;;;14.61;59.51;101226.34;146601;581;46020;-74
2024/02/24 05:54:57;;;;;;;;;24.50;24.00;;;;;15.62;56.21;101228.78;146599;569;46016;-71
2024/02/24 05:58:02;;;;;;;;;23.75;21.50;;;;;12.73;54.56;100561.03;146598;606;46021;-71
2024/02/24 06:01:09;;;;;;;;;50.50;40.00;;;;;17.36;52.46;101229.72;146597;561;47012;-71
2024/02/24 06:04:10;;;;;;;;;48.00;37.75;;;;;18.16;50.76;101219.87;146599;615;46021;-75
2024/02/24 06:07:18;;;;;;;;;21.25;20.00;;;;;18.90;49.14;101234.16;146597;569;46012;-78
2024/02/24 06:10:24;;;;;;;;;34.75;29.50;;;;;19.46;47.62;101238.13;146599;571;46013;-79
2024/02/24 06:13:17;;;;;;;;;28.00;27.50;;;;;19.70;46.71;101237.84;146597;651;46016;-78
2024/02/24 06:16:13;;;;;;;;;29.25;24.50;;;;;19.83;47.62;101242.53;146598;576;47010;-77
2024/02/24 06:19:09;;;;;;;;;28.25;27.25;;;;;20.09;46.77;101240.41;146596;591;46017;-80
2024/02/24 06:22:09;;;;;;;;;28.00;25.25;;;;;20.55;46.15;101245.75;146602;615;46020;-80
2024/02/24 06:25:03;;;;;;;;;25.50;25.00;;;;;20.88;45.22;101250.75;146598;667;46012;-82
2024/02/24 06:28:04;;;;;;;;;32.25;29.75;;;;;21.14;44.03;101246.78;146599;632;46021;-73
2024/02/24 06:30:59;;;;;;;;;30.50;28.50;;;;;20.83;43.41;101245.38;146596;697;46016;-80
2024/02/24 06:33:52;;;;;;;;;31.75;29.25;;;;;20.25;44.73;101247.81;146597;602;47021;-80
2024/02/24 06:36:49;;;;;;;;;36.25;28.75;;;;;19.87;45.80;101236.44;146596;613;47038;-81
2024/02/24 06:39:42;;;;;;;;;20.00;18.50;;;;;19.71;44.79;101243.13;146599;687;46020;-82
2024/02/24 06:42:40;;;;;;;;;11.00;10.50;;;;;19.41;44.00;101248.56;146594;571;46017;-80
2024/02/24 06:45:34;;;;;;;;;26.25;23.50;;;;;19.00;45.83;101255.41;146599;605;46020;-81
2024/02/24 06:48:27;;;;;;;;;36.25;31.50;;;;;18.69;46.67;101229.22;146596;603;46016;-84
2024/02/24 06:51:22;;;;;;;;;40.75;33.50;;;;;18.75;47.52;101252.16;146601;576;46010;-84
2024/02/24 06:54:17;;;;;;;;;8.75;7.75;;;;;18.76;43.75;101253.97;146597;606;46016;-74
2024/02/24 06:57:31;;;;;;;;;6.33;6.00;;;;;18.68;44.82;101255.44;146601;598;46021;-74
2024/02/24 07:00:39;;;;;;;;;8.25;7.00;;;;;18.61;45.32;101245.62;146600;617;46012;-76
2024/02/24 07:03:35;;;;;;;;;6.00;6.00;;;;;18.51;43.61;101255.00;146602;711;46020;-76
2024/02/24 07:06:28;;;;;;;;;9.75;7.50;;;;;18.23;44.32;101258.59;146596;565;46016;-74
2024/02/24 07:09:26;;;;;;;;;10.50;7.00;;;;;17.95;45.13;101257.78;146598;591;47021;-72
2024/02/24 07:12:19;;;;;;;;;11.25;10.00;;;;;17.70;46.18;101260.50;146598;611;46016;-76
2024/02/24 07:15:30;;;;;;;;;11.75;10.25;;;;;17.47;47.05;101271.13;146600;581;46020;-75
2024/02/24 07:18:36;;;;;;;;;9.00;8.00;;;;;17.39;47.83;101262.16;146598;564;46024;-82
2024/02/24 07:21:45;;;;;;;;;8.75;8.75;;;;;17.26;47.63;101265.22;146601;623;46020;-74
2024/02/24 07:24:47;;;;;;;;;10.25;9.00;;;;;17.23;47.86;101260.75;146597;599;46015;-72
2024/02/24 07:27:43;;;;;;;;;14.75;11.75;;;;;17.29;47.63;101260.06;146597;636;46029;-72
2024/02/24 07:30:45;;;;;;;;;14.25;8.75;;;;;17.47;47.21;101271.13;146598;577;46016;-71
2024/02/24 07:33:48;;;;;;;;;9.50;8.00;;;;;17.60;46.96;101279.38;146601;619;46021;-72
2024/02/24 07:37:00;;;;;;;;;5.50;5.50;;;;;17.52;46.31;101280.03;146599;598;46016;-73
2024/02/24 07:39:55;;;;;;;;;8.25;6.75;;;;;17.37;47.14;101282.16;146602;564;46021;-74
2024/02/24 07:42:49;;;;;;;;;7.67;6.67;;;;;17.22;48.01;101277.31;146597;585;47012;-77
2024/02/24 07:45:48;;;;;;;;;8.00;8.00;;;;;17.13;47.83;101279.62;146600;683;47010;-78
2024/02/24 07:48:44;;;;;;;;;10.75;9.25;;;;;17.18;48.14;101285.03;146601;573;47017;-76
2024/02/24 07:51:36;;;;;;;;;11.50;9.00;;;;;17.26;47.79;101283.56;146601;669;46010;-72
2024/02/24 07:54:45;;;;;;;;;14.00;9.00;;;;;17.36;47.52;101280.41;146597;690;46013;-74
2024/02/24 07:57:49;;;;;;;;;8.25;8.25;;;;;17.40;46.35;101279.66;146599;606;46010;-70
2024/02/24 08:00:51;;;;;;;;;11.25;11.25;;;;;17.49;46.93;101292.16;146599;569;46016;-74
2024/02/24 08:04:06;;;;;;;;;8.25;6.00;;;;;17.58;46.93;101304.69;146599;668;46010;-72
2024/02/24 08:06:59;;;;;;;;;9.50;8.50;;;;;17.57;46.52;101303.81;146599;574;46016;-71
2024/02/24 08:09:55;;;;;;;;;11.75;10.25;;;;;17.68;46.83;101309.38;146603;680;46011;-72
2024/02/24 08:12:52;;;;;;;;;15.75;11.25;;;;;17.78;47.02;101300.97;146598;633;46012;-72
2024/02/24 08:15:53;;;;;;;;;10.75;9.50;;;;;17.93;46.50;101301.44;146601;569;46010;-72
2024/02/24 08:18:54;;;;;;;;;13.25;11.50;;;;;18.00;46.39;101311.28;146597;620;47014;-71
2024/02/24 08:21:49;;;;;;;;;14.00;11.00;;;;;17.96;46.81;101304.16;146601;713;46010;-72
2024/02/24 08:24:51;;;;;;;;;14.00;12.50;;;;;17.97;46.95;101318.16;146599;667;46016;-71
2024/02/24 08:27:54;;;;;;;;;15.50;14.00;;;;;17.98;46.77;101310.34;146600;591;46020;-73
2024/02/24 08:30:51;;;;;;;;;17.50;13.25;;;;;18.12;45.90;101305.50;146600;571;46017;-72
2024/02/24 08:33:53;;;;;;;;;17.00;16.00;;;;;18.24;45.51;101316.38;146603;615;46010;-75
2024/02/24 08:37:04;;;;;;;;;16.00;13.00;;;;;18.29;45.69;101316.53;146599;563;46014;-72
2024/02/24 08:40:03;;;;;;;;;19.00;15.25;;;;;18.29;45.10;101316.53;146600;583;46011;-73
2024/02/24 08:43:17;;;;;;;;;15.00;14.00;;;;;18.24;46.20;101321.63;146599;620;46016;-73
2024/02/24 08:46:20;;;;;;;;;13.25;11.00;;;;;18.22;45.71;101318.09;146602;569;47011;-73
2024/02/24 08:49:30;;;;;;;;;;;;;;;;;;;;;
2024/02/24 08:52:46;;;;;;;;;14.75;13.50;;;;;18.17;45.99;101321.41;146601;638;46010;-73
2024/02/24 08:56:07;;;;;;;;;9.25;9.25;;;;;18.09;45.71;101325.53;146600;610;46016;-71
2024/02/24 08:59:01;;;;;;;;;10.25;9.00;;;;;18.05;46.33;101321.94;146597;594;47020;-72
2024/02/24 09:02:07;;;;;;;;;14.00;14.00;;;;;18.05;46.60;101328.91;146596;624;46013;-70
2024/02/24 09:05:16;;;;;;;;;13.75;13.00;;;;;16.36;45.60;100986.44;146602;588;47010;-73
2024/02/24 09:08:29;;;;;;;;;13.00;9.75;;;;;18.67;44.75;101329.84;146596;581;46015;-72
2024/02/24 09:11:25;;;;;;;;;12.75;11.50;;;;;19.02;44.41;101322.94;146602;597;46020;-74
2024/02/24 09:14:31;;;;;;;;;;;;;;;;;;;;;
2024/02/24 09:17:31;;;;;;;;;11.00;10.00;;;;;19.57;43.33;101334.87;146604;584;45023;-72
2024/02/24 09:20:26;;;;;;;;;13.25;13.00;;;;;19.70;42.87;101336.09;146597;578;46016;-72
2024/02/24 09:23:25;;;;;;;;;14.25;12.00;;;;;19.58;42.90;101328.75;146601;626;46010;-70
2024/02/24 09:26:20;;;;;;;;;12.00;12.00;;;;;19.47;43.64;101310.91;146599;638;46016;-72
2024/02/24 09:29:13;;;;;;;;;14.75;13.75;;;;;19.21;43.58;101319.06;146598;583;46022;-70
2024/02/24 09:32:29;;;;;;;;;;;;;;;;;;;;;
2024/02/24 09:35:40;;;;;;;;;14.75;8.75;;;;;18.95;44.02;101322.75;146603;578;46029;-71
2024/02/24 09:38:33;;;;;;;;;15.50;12.00;;;;;19.11;43.78;101315.31;146596;705;46017;-72
2024/02/24 09:41:34;;;;;;;;;15.25;14.00;;;;;19.35;44.39;101312.41;146601;593;46020;-72
2024/02/24 09:44:51;;;;;;;;;7.75;7.75;;;;;19.59;43.13;101334.87;146597;660;46016;-72
2024/02/24 09:47:53;;;;;;;;;11.00;11.00;;;;;19.92;44.00;101328.69;146600;680;47010;-71
2024/02/24 09:50:50;;;;;;;;;9.75;8.50;;;;;18.74;42.41;101082.25;146596;630;46016;-69
2024/02/24 09:53:57;;;;;;;;;9.00;8.50;;;;;20.26;43.60;101320.66;146601;660;46021;-72
2024/02/24 09:56:51;;;;;;;;;10.75;9.75;;;;;20.12;42.41;101319.47;146599;565;46012;-71
2024/02/24 10:00:01;;;;;;;;;13.00;11.75;;;;;19.91;43.05;101316.38;146598;667;46021;-72
2024/02/24 10:02:56;;;;;;;;;11.25;11.25;;;;;19.81;43.25;101318.81;146598;621;46016;-73
2024/02/24 10:06:00;;;;;;;;;11.25;10.00;;;;;19.70;43.20;101308.88;146601;709;46020;-71
2024/02/24 10:09:04;;;;;;;;;11.00;10.00;;;;;19.69;43.76;101310.63;146597;573;46017;-68
2024/02/24 10:12:18;;;;;;;;;;;;;;;;;;;;;
2024/02/24 10:15:25;;;;;;;;;10.50;9.75;;;;;19.90;43.46;101302.31;146627;640;45029;-72
2024/02/24 10:18:25;;;;;;;;;12.75;11.75;;;;;19.89;42.28;101312.81;146627;573;45010;-71
2024/02/24 10:21:32;;;;;;;;;10.00;8.25;;;;;19.87;43.07;101307.50;146627;675;45022;-71
2024/02/24 10:24:31;;;;;;;;;9.00;8.00;;;;;19.83;42.49;101303.03;146627;718;45020;-73
2024/02/24 10:27:40;;;;;;;;;10.50;8.50;;;;;19.88;43.45;101297.91;146625;575;45025;-70
2024/02/24 10:30:39;;;;;;;;;10.50;9.75;;;;;19.93;43.33;101305.03;146626;665;46012;-71
2024/02/24 10:33:34;;;;;;;;;9.00;9.00;;;;;19.92;42.71;101302.38;146625;584;45012;-70
2024/02/24 10:36:47;;;;;;;;;11.33;9.00;;;;;20.01;42.64;101295.56;146627;667;47010;-68
2024/02/24 10:39:53;;;;;;;;;9.67;9.00;;;;;20.23;42.45;101303.91;146622;650;45016;-71
2024/02/24 10:42:54;;;;;;;;;10.67;9.00;;;;;20.47;41.80;101293.00;146628;606;47010;-70
2024/02/24 10:45:50;;;;;;;;;14.00;8.00;;;;;20.66;41.91;101294.28;146628;602;45013;-73
2024/02/24 10:48:53;;;;;;;;;10.00;8.00;;;;;20.85;41.49;101292.88;146629;656;45029;-73
2024/02/24 10:51:52;;;;;;;;;8.00;8.00;;;;;20.94;41.19;101290.41;146623;589;46017;-71
2024/02/24 10:54:51;;;;;;;;;30.50;28.00;;;;;20.96;40.44;101284.28;146627;577;45020;-72
2024/02/24 10:57:45;;;;;;;;;26.75;23.75;;;;;20.81;40.86;101289.31;146622;564;46012;-72
2024/02/24 11:00:40;;;;;;;;;13.75;13.75;;;;;20.59;41.02;101284.47;146622;720;46010;-75
2024/02/24 11:03:34;;;;;;;;;10.33;9.33;;;;;20.32;42.60;101284.78;146627;582;46012;-73
2024/02/24 11:07:00;;;;;;;;;11.75;10.00;;;;;16.30;42.02;100606.81;146627;598;46023;-68
2024/02/24 11:10:10;;;;;;;;;20.00;15.50;;;;;20.41;42.79;101272.69;146626;615;45913;-70
2024/02/24 11:13:12;;;;;;;;;13.25;10.50;;;;;20.65;42.05;101274.03;146615;616;46010;-70
2024/02/24 11:16:14;;;;;;;;;9.75;9.75;;;;;20.83;41.76;101278.78;146599;569;46016;-69
2024/02/24 11:19:56;;;;;;;;;14.50;13.50;;;;;18.10;41.41;100769.25;146600;614;46010;-71
2024/02/24 11:22:57;;;;;;;;;13.00;12.75;;;;;21.04;40.69;101265.97;146594;633;46016;-70
2024/02/24 11:25:53;;;;;;;;;10.67;9.00;;;;;21.13;40.74;101262.59;146604;610;46012;-70
2024/02/24 11:29:12;;;;;;;;;14.00;13.00;;;;;21.20;40.71;101256.56;146599;675;46014;-69
2024/02/24 11:32:20;;;;;;;;;15.25;14.25;;;;;21.32;41.89;101250.59;146596;594;48010;-71
2024/02/24 11:35:21;;;;;;;;;12.25;10.75;;;;;21.35;40.93;101243.66;146597;588;46013;-70
2024/02/24 11:38:26;;;;;;;;;12.25;12.25;;;;;21.42;40.43;101242.00;146600;591;47012;-72
2024/02/24 11:41:20;;;;;;;;;14.25;13.25;;;;;21.44;40.24;101250.81;146595;579;46016;-71
2024/02/24 11:44:16;;;;;;;;;13.00;8.00;;;;;21.38;40.08;101242.81;146600;590;47025;-70
2024/02/24 11:47:09;;;;;;;;;11.67;11.33;;;;;21.39;40.30;101239.31;146601;569;46012;-70
2024/02/24 11:50:02;;;;;;;;;13.00;11.00;;;;;21.41;40.57;101237.59;146602;576;46010;-72
2024/02/24 11:53:20;;;;;;;;;10.50;8.25;;;;;21.42;39.93;101213.84;146598;650;46016;-72
2024/02/24 11:56:18;;;;;;;;;9.25;9.00;;;;;21.58;39.48;101228.16;146600;565;47010;-70
2024/02/24 11:59:14;;;;;;;;;18.50;18.00;;;;;21.58;39.86;101220.22;146598;608;45915;-70
2024/02/24 12:02:20;;;;;;;;;13.75;12.75;;;;;21.50;39.56;101232.44;146600;666;46010;-70
2024/02/24 12:05:30;;;;;;;;;15.50;14.25;;;;;21.40;40.27;101231.44;146595;565;47016;-70
2024/02/24 12:08:28;;;;;;;;;11.00;10.67;;;;;21.38;39.79;101233.16;146603;647;46020;-70
2024/02/24 12:11:26;;;;;;;;;11.00;9.33;;;;;21.40;39.13;101227.88;146597;655;47015;-70
2024/02/24 12:14:32;;;;;;;;;11.25;9.75;;;;;21.46;40.37;101220.06;146601;603;46020;-69
2024/02/24 12:17:27;;;;;;;;;8.67;7.67;;;;;21.50;39.47;101211.34;146596;580;46016;-69
2024/02/24 12:20:19;;;;;;;;;10.00;8.33;;;;;21.55;39.69;101201.72;146605;689;46021;-70
2024/02/24 12:23:20;;;;;;;;;14.25;10.00;;;;;21.59;39.58;101210.59;146598;563;46917;-73
2024/02/24 12:26:25;;;;;;;;;9.00;7.33;;;;;21.59;39.38;101210.59;146602;600;46021;-70
2024/02/24 12:29:29;;;;;;;;;11.00;9.33;;;;;21.61;40.51;101208.84;146599;593;47014;-70
2024/02/24 12:32:25;;;;;;;;;9.00;9.00;;;;;19.22;39.27;100802.03;146601;594;46020;-71
2024/02/24 12:35:17;;;;;;;;;11.25;11.25;;;;;21.65;39.89;101201.00;146597;626;47014;-71
2024/02/24 12:38:23;;;;;;;;;18.00;14.75;;;;;21.71;39.37;101199.28;146596;557;46917;-72
2024/02/24 12:41:22;;;;;;;;;11.00;9.33;;;;;21.72;38.98;101198.44;146600;641;46913;-71
2024/02/24 12:44:18;;;;;;;;;10.00;10.00;;;;;21.63;39.26;101191.28;146603;571;46010;-72
2024/02/24 12:47:20;;;;;;;;;7.67;7.00;;;;;21.56;39.79;101198.22;146598;662;46016;-71
2024/02/24 12:50:19;;;;;;;;;7.75;4.50;;;;;21.57;39.59;101191.19;146603;679;46021;-71
2024/02/24 12:53:15;;;;;;;;;7.67;7.67;;;;;21.58;40.05;101187.69;146597;591;47012;-70
2024/02/24 12:56:20;;;;;;;;;10.33;7.00;;;;;21.51;38.82;101175.28;146600;576;47020;-70
2024/02/24 12:59:24;;;;;;;;;14.00;11.25;;;;;21.51;39.02;101185.84;146598;570;46016;-71
2024/02/24 13:02:30;;;;;;;;;12.00;11.00;;;;;21.44;40.40;101227.97;146596;679;47915;-71
2024/02/24 13:05:23;;;;;;;;;9.00;8.00;;;;;21.39;39.98;101183.91;146595;565;47014;-71
2024/02/24 13:08:23;;;;;;;;;9.50;8.25;;;;;21.32;39.46;101189.94;146602;576;46010;-69
2024/02/24 13:11:23;;;;;;;;;8.75;8.75;;;;;21.28;39.77;101191.66;146597;603;47012;-69
2024/02/24 13:14:25;;;;;;;;;17.00;11.50;;;;;21.21;39.49;101188.03;146600;563;46010;-70
2024/02/24 13:17:21;;;;;;;;;12.25;9.00;;;;;21.10;39.64;101172.91;146599;599;46016;-70
2024/02/24 13:20:21;;;;;;;;;16.00;12.00;;;;;21.12;40.34;101185.25;146603;570;46020;-71
2024/02/24 13:23:19;;;;;;;;;11.00;8.00;;;;;21.13;40.03;101187.00;146599;563;46016;-71
2024/02/24 13:26:12;;;;;;;;;11.00;10.00;;;;;21.17;40.20;101195.84;146600;626;46021;-70
2024/02/24 13:29:09;;;;;;;;;11.25;10.75;;;;;21.36;40.87;101186.50;146595;585;47012;-72
2024/02/24 13:32:04;;;;;;;;;13.00;10.00;;;;;21.60;40.13;101189.47;146602;699;46020;-71
2024/02/24 13:35:02;;;;;;;;;12.00;10.67;;;;;21.77;39.62;101189.69;146598;596;46012;-70
2024/02/24 13:37:58;;;;;;;;;17.00;16.00;;;;;21.78;38.58;101188.84;146600;580;46010;-70
2024/02/24 13:40:57;;;;;;;;;10.00;10.00;;;;;21.67;39.56;101186.03;146598;649;46012;-71
2024/02/24 13:44:01;;;;;;;;;9.67;7.67;;;;;21.51;37.81;101185.84;146602;644;47010;-71
2024/02/24 13:47:06;;;;;;;;;10.00;8.33;;;;;21.29;39.11;101182.84;146598;575;46012;-71
2024/02/24 13:50:02;;;;;;;;;11.33;9.33;;;;;21.14;39.83;101193.16;146602;615;46033;-69
2024/02/24 13:53:04;;;;;;;;;15.25;13.50;;;;;20.97;39.19;101191.16;146599;563;46016;-70
2024/02/24 13:56:07;;;;;;;;;9.00;8.67;;;;;20.80;40.47;101189.97;146602;688;47010;-71
2024/02/24 13:59:06;;;;;;;;;14.25;11.25;;;;;20.64;40.90;101183.56;146599;616;46016;-71